Time;durP1;ratioP1;P1;durP2;ratioP2;P2;SDS_P1;SDS_P2;PMS_P1;PMS_P2;Temp;Humidity;BMP_temperature;BMP_pressure;BME280_temperature;BME280_humidity;BME280_pressure;Samples;Min_cycle;Max_cycle;Signal;HPM_P1;HPM_P2
2023/03/16 00:01:55;;;;;;;1.00;1.00;;;;;;;3.88;82.94;101725.31;5068711;28;20112;-63
2023/03/16 00:04:21;;;;;;;1.00;1.00;;;;;;;3.90;82.62;101724.16;5069377;28;20028;-63
2023/03/16 00:06:46;;;;;;;1.30;1.20;;;;;;;3.90;83.13;101716.00;5070034;28;20042;-63
2023/03/16 00:09:12;;;;;;;1.10;1.10;;;;;;;3.90;83.70;101724.16;5070032;28;20090;-63
2023/03/16 00:11:37;;;;;;;1.20;1.10;;;;;;;3.96;83.03;101713.63;5068517;28;20452;-63
2023/03/16 00:14:03;;;;;;;0.90;0.90;;;;;;;3.98;83.41;101709.72;5069288;28;20363;-63
2023/03/16 00:16:28;;;;;;;1.10;1.10;;;;;;;4.00;83.36;101714.97;5070512;28;20020;-63
2023/03/16 00:18:53;;;;;;;1.02;1.02;;;;;;;4.01;83.74;101703.94;5069744;28;20495;-63
2023/03/16 00:21:19;;;;;;;1.00;1.00;;;;;;;4.04;83.63;101711.75;5069939;28;20020;-63
2023/03/16 00:23:44;;;;;;;1.00;1.00;;;;;;;4.05;83.73;101708.00;5067337;28;20032;-64
2023/03/16 00:26:11;;;;;;;0.90;0.90;;;;;;;4.09;83.52;101700.38;5069382;28;20422;-63
2023/03/16 00:28:37;;;;;;;0.90;0.90;;;;;;;4.11;83.50;101701.94;5068097;28;20169;-63
2023/03/16 00:31:06;;;;;;;1.02;1.02;;;;;;;4.10;84.19;101693.91;5067930;28;20497;-63
2023/03/16 00:33:34;;;;;;;1.15;1.15;;;;;;;4.13;83.02;101689.00;5069430;28;20372;-63
2023/03/16 00:36:06;;;;;;;1.00;1.00;;;;;;;4.14;83.43;101689.84;5069882;28;20024;-63
2023/03/16 00:38:34;;;;;;;1.30;1.20;;;;;;;4.19;83.21;101692.06;5069248;28;20549;-63
2023/03/16 00:41:02;;;;;;;1.17;1.10;;;;;;;4.19;83.51;101689.34;5067266;28;20048;-64
2023/03/16 00:43:29;;;;;;;1.05;1.05;;;;;;;4.23;82.89;101694.28;5064371;28;20024;-64
2023/03/16 00:46:05;;;;;;;1.10;1.10;;;;;;;4.21;83.89;101696.34;5069145;28;20025;-63
2023/03/16 00:48:34;;;;;;;1.20;1.10;;;;;;;4.21;83.58;101680.03;5069301;28;20040;-63
2023/03/16 00:51:06;;;;;;;0.90;0.90;;;;;;;4.25;83.22;101675.06;5069699;28;20029;-63
2023/03/16 00:53:33;;;;;;;1.00;1.00;;;;;;;4.22;83.97;101675.44;5068608;28;20090;-63
2023/03/16 00:56:01;;;;;;;1.00;1.00;;;;;;;4.23;84.33;101674.41;5069021;28;20024;-63
2023/03/16 00:58:27;;;;;;;;;;;;;;;4.26;82.80;101664.06;5069529;28;20050;-63
2023/03/16 01:00:53;;;;;;;1.10;1.10;;;;;;;4.21;83.95;101657.41;5067731;28;20393;-63
2023/03/16 01:03:18;;;;;;;1.20;1.00;;;;;;;4.23;83.39;101661.66;5069304;28;20332;-63
2023/03/16 01:05:44;;;;;;;1.10;1.10;;;;;;;4.22;83.34;101651.81;5068438;28;20024;-63
2023/03/16 01:08:09;;;;;;;1.10;1.00;;;;;;;4.23;83.93;101655.38;5069154;28;20027;-63
2023/03/16 01:10:35;;;;;;;1.00;1.00;;;;;;;4.22;83.96;101645.53;5067443;28;20784;-64
2023/03/16 01:13:02;;;;;;;1.20;1.10;;;;;;;4.22;83.44;101643.66;5068736;28;20028;-64
2023/03/16 01:15:30;;;;;;;1.05;1.05;;;;;;;4.20;84.30;101634.81;5068891;28;20035;-63
2023/03/16 01:17:56;;;;;;;1.00;1.00;;;;;;;4.23;84.20;101634.47;5068610;28;20012;-64
2023/03/16 01:20:22;;;;;;;1.10;1.10;;;;;;;4.20;84.33;101628.53;5068839;28;20054;-63
2023/03/16 01:22:47;;;;;;;1.00;1.00;;;;;;;4.19;84.93;101622.22;5066492;28;20020;-64
2023/03/16 01:25:13;;;;;;;1.00;1.00;;;;;;;4.19;84.68;101621.38;5067880;28;20059;-64
2023/03/16 01:27:39;;;;;;;1.00;1.00;;;;;;;4.20;84.50;101617.63;5066384;28;20117;-63
2023/03/16 01:30:05;;;;;;;1.02;1.02;;;;;;;4.15;85.30;101623.59;5068623;28;20377;-63
2023/03/16 01:32:30;;;;;;;1.15;1.13;;;;;;;4.13;85.46;101621.03;5068671;28;20219;-63
2023/03/16 01:34:55;;;;;;;0.93;0.93;;;;;;;4.12;85.63;101619.34;5067212;28;20051;-62
2023/03/16 01:37:21;;;;;;;1.23;1.13;;;;;;;4.12;85.53;101618.50;5068224;28;20134;-63
2023/03/16 01:39:48;;;;;;;0.85;0.85;;;;;;;4.11;85.79;101616.81;5067170;28;20145;-63
2023/03/16 01:42:13;;;;;;;1.10;1.10;;;;;;;4.14;85.97;101611.88;5067776;28;20068;-62
2023/03/16 01:45:00;;;;;;;1.00;1.00;;;;;;;4.14;85.77;101614.59;5067774;28;20599;-63
2023/03/16 01:47:26;;;;;;;1.00;1.00;;;;;;;4.14;86.06;101611.88;5066777;28;20067;-62
2023/03/16 01:49:54;;;;;;;1.20;1.10;;;;;;;4.12;85.62;101616.63;5068111;28;20035;-63
2023/03/16 01:52:23;;;;;;;1.05;1.05;;;;;;;4.12;86.95;101610.34;5068304;28;20078;-64
2023/03/16 01:54:53;;;;;;;0.98;0.98;;;;;;;4.14;86.21;101608.31;5067263;28;20086;-63
2023/03/16 01:57:21;;;;;;;1.00;1.00;;;;;;;4.11;86.14;101603.22;5067280;28;20108;-63
2023/03/16 01:59:49;;;;;;;1.10;1.10;;;;;;;4.12;86.13;101599.47;5067195;28;20032;-62
2023/03/16 02:02:19;;;;;;;1.10;1.10;;;;;;;4.10;86.88;101601.50;5067857;28;20028;-63
2023/03/16 02:04:51;;;;;;;1.05;1.05;;;;;;;4.10;86.80;101601.50;5067585;28;20540;-63
2023/03/16 02:07:19;;;;;;;1.10;1.10;;;;;;;4.12;86.77;101591.31;5066470;28;20085;-63
2023/03/16 02:09:45;;;;;;;;;;;;;;;4.19;84.52;101588.75;5067321;28;20024;-63
2023/03/16 02:12:17;;;;;;;1.10;1.10;;;;;;;4.10;86.16;101585.19;5066383;28;19916;-63
2023/03/16 02:14:44;;;;;;;1.20;1.10;;;;;;;4.10;86.76;101580.59;5067544;28;20093;-63
2023/03/16 02:17:10;;;;;;;1.10;1.10;;;;;;;4.08;87.01;101576.38;5067849;28;20061;-63
2023/03/16 02:20:23;;;;;;;1.02;1.02;;;;;;;4.10;86.38;101575.16;5067499;28;20050;-63
2023/03/16 02:22:53;;;;;;;1.25;1.15;;;;;;;4.08;87.12;101571.78;5065151;28;20048;-62
2023/03/16 02:25:22;;;;;;;1.00;1.00;;;;;;;4.09;86.98;101569.91;5065301;28;20064;-63
2023/03/16 02:28:09;;;;;;;1.00;1.00;;;;;;;4.11;86.66;101565.16;5067179;28;20021;-63
2023/03/16 02:30:35;;;;;;;1.13;1.13;;;;;;;4.09;87.40;101573.47;5067316;28;20039;-63
2023/03/16 02:33:03;;;;;;;1.08;1.05;;;;;;;4.11;88.67;101568.72;5067491;28;20028;-63
2023/03/16 02:35:30;;;;;;;1.05;1.02;;;;;;;4.15;88.17;101566.50;5065783;28;20055;-63
2023/03/16 02:37:55;;;;;;;1.00;1.00;;;;;;;4.10;89.23;101568.88;5061373;28;20025;-63
2023/03/16 02:40:27;;;;;;;1.17;1.10;;;;;;;4.12;89.04;101573.13;5066776;28;20143;-63
2023/03/16 02:43:04;;;;;;;1.05;1.05;;;;;;;4.06;90.07;101575.69;5066830;28;20499;-64
2023/03/16 02:48:04;;;;;;;1.10;1.10;;;;;;;4.03;91.04;101574.16;5038601;28;20318;-63
2023/03/16 02:50:29;;;;;;;1.08;1.08;;;;;;;4.04;91.64;101575.84;5045486;28;20485;-63
2023/03/16 02:52:54;;;;;;;1.10;1.10;;;;;;;4.03;92.27;101568.72;5048936;28;20032;-64
2023/03/16 02:55:20;;;;;;;1.00;1.00;;;;;;;4.06;91.20;101567.53;5050556;28;20089;-63
2023/03/16 02:57:46;;;;;;;1.13;1.10;;;;;;;4.08;91.09;101562.78;5050021;28;20115;-63
2023/03/16 03:00:17;;;;;;;1.10;1.10;;;;;;;4.05;92.00;101566.66;5050452;28;20029;-63
2023/03/16 03:02:45;;;;;;;1.38;1.30;;;;;;;4.03;91.79;101562.44;5050874;28;20123;-63
2023/03/16 03:05:11;;;;;;;1.13;1.13;;;;;;;4.04;92.22;101562.25;5049045;28;20035;-63
2023/03/16 03:07:37;;;;;;;1.20;1.10;;;;;;;4.03;92.58;101557.84;5050915;28;20473;-63
2023/03/16 03:10:04;;;;;;;1.00;1.00;;;;;;;4.05;91.13;101560.38;5050332;28;20059;-63
2023/03/16 03:12:31;;;;;;;0.98;0.98;;;;;;;4.05;91.49;101561.22;5050694;28;20796;-63
2023/03/16 03:14:56;;;;;;;1.10;1.10;;;;;;;4.04;92.01;101551.38;5050225;28;20025;-63
2023/03/16 03:17:28;;;;;;;0.95;0.95;;;;;;;4.06;91.58;101556.66;5050769;28;20040;-63
2023/03/16 03:19:54;;;;;;;1.48;1.00;;;;;;;4.05;91.88;101550.34;5050624;28;20039;-63
2023/03/16 03:22:19;;;;;;;1.10;1.00;;;;;;;4.10;90.94;101544.41;5050357;28;20112;-63
2023/03/16 03:24:45;;;;;;;1.20;1.10;;;;;;;4.05;90.93;101547.63;5049182;28;20052;-63
2023/03/16 03:27:10;;;;;;;1.10;1.10;;;;;;;4.02;92.42;101541.72;5050461;28;20120;-63
2023/03/16 03:29:35;;;;;;;1.00;1.00;;;;;;;4.01;91.92;101532.72;5049737;28;20029;-63
2023/03/16 03:32:04;;;;;;;1.20;1.10;;;;;;;4.01;92.22;101542.75;5050849;28;20049;-63
2023/03/16 03:34:30;;;;;;;1.17;1.10;;;;;;;4.01;91.95;101534.59;5050495;28;20032;-63
2023/03/16 03:36:56;;;;;;;1.00;1.00;;;;;;;4.00;92.18;101527.44;5049452;28;20528;-63
2023/03/16 03:39:22;;;;;;;1.00;1.00;;;;;;;3.99;92.48;101539.31;5049584;28;20032;-63
2023/03/16 03:41:47;;;;;;;1.08;1.08;;;;;;;3.99;92.36;101539.31;5049809;28;20466;-63
2023/03/16 03:44:12;;;;;;;1.10;1.10;;;;;;;3.98;92.75;101534.91;5049818;28;20033;-63
2023/03/16 03:46:37;;;;;;;0.98;0.98;;;;;;;3.99;92.92;101537.47;5049276;28;20041;-63
2023/03/16 03:49:04;;;;;;;1.00;1.00;;;;;;;3.98;92.41;101534.91;5050185;28;20036;-63
2023/03/16 03:51:30;;;;;;;1.00;1.00;;;;;;;3.98;92.23;101533.03;5050318;28;20557;-64
2023/03/16 03:53:57;;;;;;;1.00;1.00;;;;;;;3.95;92.48;101527.09;5049523;28;20398;-63
2023/03/16 03:56:22;;;;;;;1.10;1.10;;;;;;;3.94;92.73;101526.25;5048743;28;20111;-63
2023/03/16 03:58:47;;;;;;;1.20;1.10;;;;;;;3.95;92.42;101529.81;5048406;28;20118;-63
2023/03/16 04:01:13;;;;;;;1.13;1.05;;;;;;;3.92;92.77;101520.16;5048194;28;20438;-63
2023/03/16 04:03:38;;;;;;;1.00;1.00;;;;;;;3.95;92.71;101522.50;5049241;28;20475;-63
2023/03/16 04:06:06;;;;;;;1.20;1.20;;;;;;;3.93;92.96;101519.13;5049703;28;20032;-64
2023/03/16 04:08:31;;;;;;;1.00;1.00;;;;;;;3.98;91.85;101516.75;5050234;28;20029;-63
2023/03/16 04:10:56;;;;;;;1.00;1.00;;;;;;;3.99;92.45;101520.31;5048915;28;20344;-64
2023/03/16 04:13:22;;;;;;;1.20;1.10;;;;;;;4.01;91.92;101516.41;5047852;28;20033;-63
2023/03/16 04:15:47;;;;;;;1.25;1.15;;;;;;;4.03;91.29;101519.78;5049296;28;20100;-63
2023/03/16 04:18:12;;;;;;;1.10;1.00;;;;;;;4.02;92.23;101520.81;5038352;28;20502;-63
2023/03/16 04:20:38;;;;;;;1.08;1.08;;;;;;;4.03;92.20;101521.66;5036457;28;20032;-63
2023/03/16 04:23:04;;;;;;;1.00;1.00;;;;;;;4.07;91.10;101510.28;5048876;28;20025;-63
2023/03/16 04:25:29;;;;;;;1.08;1.08;;;;;;;4.07;91.30;101507.56;5048885;28;20031;-64
2023/03/16 04:27:55;;;;;;;1.10;1.10;;;;;;;4.05;91.33;101497.88;5048423;28;20071;-63
2023/03/16 04:30:22;;;;;;;1.10;1.10;;;;;;;4.04;92.53;101504.34;5048389;28;20033;-63
2023/03/16 04:32:48;;;;;;;0.90;0.90;;;;;;;4.04;91.66;101502.47;5049171;28;20025;-63
2023/03/16 04:35:14;;;;;;;1.02;1.02;;;;;;;4.04;92.76;101501.63;5049463;28;20514;-63
2023/03/16 04:37:40;;;;;;;1.20;1.20;;;;;;;4.04;92.31;101497.03;5048570;28;20428;-64
2023/03/16 04:40:15;;;;;;;1.05;1.05;;;;;;;4.03;92.59;101497.19;5047621;28;20079;-64
2023/03/16 04:42:41;;;;;;;1.10;1.10;;;;;;;4.05;92.58;101506.88;5045369;28;20109;-63
2023/03/16 04:45:07;;;;;;;1.00;1.00;;;;;;;4.09;91.94;101508.22;5049021;28;20044;-64
2023/03/16 04:47:33;;;;;;;1.20;1.10;;;;;;;4.07;92.06;101498.56;5048262;28;20045;-63
2023/03/16 04:50:02;;;;;;;0.90;0.90;;;;;;;4.07;91.79;101496.69;5048630;28;20194;-63
2023/03/16 04:52:28;;;;;;;1.20;1.10;;;;;;;4.10;91.30;101498.19;5048775;28;20071;-63
2023/03/16 04:54:53;;;;;;;1.00;1.00;;;;;;;4.08;91.68;101501.09;5047578;28;20060;-64
2023/03/16 04:57:19;;;;;;;1.00;1.00;;;;;;;4.07;92.35;101493.13;5048569;28;20044;-63
2023/03/16 04:59:44;;;;;;;1.10;1.10;;;;;;;4.10;91.90;101496.31;5046913;28;20055;-63
2023/03/16 05:02:09;;;;;;;1.10;1.10;;;;;;;4.11;91.68;101500.78;5048604;28;20036;-63
2023/03/16 05:04:35;;;;;;;1.10;1.00;;;;;;;4.11;92.23;101495.34;5047831;28;20048;-63
2023/03/16 05:07:00;;;;;;;1.10;1.10;;;;;;;4.10;92.52;101490.88;5048947;28;20361;-63
2023/03/16 05:09:25;;;;;;;1.13;1.05;;;;;;;4.09;92.01;101486.47;5047995;28;20108;-63
2023/03/16 05:11:50;;;;;;;1.00;1.00;;;;;;;4.06;93.14;101491.44;5047522;28;20396;-63
2023/03/16 05:14:16;;;;;;;1.08;1.08;;;;;;;4.03;93.32;101484.47;5047375;28;20031;-63
2023/03/16 05:16:41;;;;;;;1.00;1.00;;;;;;;4.02;93.85;101479.22;5047984;28;20737;-64
2023/03/16 05:19:06;;;;;;;1.00;1.00;;;;;;;4.02;94.17;101477.34;5048468;28;20032;-63
2023/03/16 05:21:33;;;;;;;0.98;0.98;;;;;;;4.02;93.96;101476.50;5046008;28;20056;-63
2023/03/16 05:23:58;;;;;;;1.08;1.08;;;;;;;4.01;93.67;101475.66;5046805;28;20033;-63
2023/03/16 05:26:24;;;;;;;0.90;0.90;;;;;;;4.00;94.47;101473.91;5048181;28;20116;-63
2023/03/16 05:28:50;;;;;;;1.00;1.00;;;;;;;4.00;94.88;101476.63;5047364;28;20336;-63
2023/03/16 05:31:16;;;;;;;0.93;0.93;;;;;;;4.01;94.78;101475.66;5046620;28;20048;-64
2023/03/16 05:33:43;;;;;;;1.38;1.27;;;;;;;4.01;94.58;101474.78;5047542;28;20041;-63
2023/03/16 05:36:09;;;;;;;1.17;1.10;;;;;;;4.03;95.18;101475.47;5047731;28;20212;-63
2023/03/16 05:38:35;;;;;;;0.90;0.90;;;;;;;4.04;94.95;101471.72;5047107;28;20107;-63
2023/03/16 05:41:03;;;;;;;1.02;1.02;;;;;;;4.05;95.33;101474.25;5048052;28;20448;-63
2023/03/16 05:43:29;;;;;;;1.10;1.10;;;;;;;4.07;94.72;101477.66;5047596;28;20028;-63
2023/03/16 05:45:55;;;;;;;1.00;1.00;;;;;;;4.05;95.61;101457.09;5047883;28;20025;-63
2023/03/16 05:48:21;;;;;;;1.25;1.15;;;;;;;4.07;95.25;101455.91;5040781;28;20459;-62
2023/03/16 05:50:46;;;;;;;1.20;1.10;;;;;;;4.06;95.14;101459.66;5047173;28;20040;-64
2023/03/16 05:53:12;;;;;;;1.10;1.00;;;;;;;4.08;95.31;101457.59;5047790;28;20029;-63
2023/03/16 05:55:38;;;;;;;0.90;0.90;;;;;;;4.09;95.24;101459.31;5046951;28;20025;-63
2023/03/16 05:58:03;;;;;;;1.00;1.00;;;;;;;4.07;95.83;101455.91;5046473;28;20465;-63
2023/03/16 06:00:29;;;;;;;1.13;1.10;;;;;;;4.07;96.01;101455.91;5047373;28;20025;-62
2023/03/16 06:02:54;;;;;;;1.00;1.00;;;;;;;4.11;95.00;101454.56;5045537;28;20060;-63
2023/03/16 06:05:24;;;;;;;1.08;1.08;;;;;;;4.10;95.04;101450.13;5045874;28;20091;-63
2023/03/16 06:07:50;;;;;;;0.93;0.93;;;;;;;4.12;95.36;101449.97;5046468;28;20371;-63
2023/03/16 06:10:16;;;;;;;1.10;1.00;;;;;;;4.14;95.63;101456.91;5046659;28;20025;-63
2023/03/16 06:12:41;;;;;;;1.10;1.10;;;;;;;4.14;96.65;101453.34;5046747;28;20426;-63
2023/03/16 06:15:09;;;;;;;1.10;1.10;;;;;;;4.12;96.60;101458.97;5045674;28;20032;-63
2023/03/16 06:17:35;;;;;;;1.20;1.10;;;;;;;4.21;95.54;101451.66;5047191;28;20021;-63
2023/03/16 06:20:01;;;;;;;1.00;1.00;;;;;;;4.19;96.38;101458.25;5047607;28;20112;-63
2023/03/16 06:22:26;;;;;;;1.10;1.00;;;;;;;4.21;96.00;101450.78;5047014;28;20108;-63
2023/03/16 06:24:52;;;;;;;1.20;1.10;;;;;;;4.23;95.45;101446.03;5044839;28;20029;-63
2023/03/16 06:27:24;;;;;;;1.00;1.00;;;;;;;4.29;95.33;101461.63;5038092;28;20029;-64
2023/03/16 06:29:49;;;;;;;1.10;1.02;;;;;;;4.32;94.14;101447.69;5046983;28;20039;-63
2023/03/16 06:32:14;;;;;;;1.00;1.00;;;;;;;4.44;92.82;101451.72;5047026;28;20451;-63
2023/03/16 06:34:40;;;;;;;1.00;1.00;;;;;;;4.39;93.98;101443.25;5046163;28;20079;-63
2023/03/16 06:37:06;;;;;;;1.10;1.00;;;;;;;4.37;94.37;101448.88;5046675;28;20036;-63
2023/03/16 06:39:31;;;;;;;0.90;0.90;;;;;;;4.42;94.38;101448.34;5046803;28;20035;-63
2023/03/16 06:41:56;;;;;;;1.20;1.10;;;;;;;4.43;94.52;101445.44;5046627;28;20118;-64
2023/03/16 06:44:22;;;;;;;1.00;1.00;;;;;;;4.46;94.27;101449.69;5046556;28;20021;-63
2023/03/16 06:46:48;;;;;;;0.90;0.90;;;;;;;4.48;94.76;101452.22;5046416;28;20033;-63
2023/03/16 06:49:13;;;;;;;0.93;0.93;;;;;;;4.49;94.44;101453.91;5046894;28;20035;-63
2023/03/16 06:51:38;;;;;;;1.10;1.10;;;;;;;4.50;94.43;101448.28;5046697;28;20055;-64
2023/03/16 06:54:03;;;;;;;0.93;0.93;;;;;;;4.51;95.18;101451.84;5043855;28;20111;-63
2023/03/16 06:56:30;;;;;;;1.13;1.10;;;;;;;4.53;94.49;101450.66;5046873;28;20021;-63
2023/03/16 06:58:56;;;;;;;1.08;1.00;;;;;;;4.52;95.68;101448.13;5046270;28;20061;-63
2023/03/16 07:01:21;;;;;;;1.10;1.10;;;;;;;4.57;95.26;101437.56;5046797;28;20050;-63
2023/03/16 07:03:47;;;;;;;0.90;0.90;;;;;;;4.60;96.03;101448.09;5045225;28;20033;-64
2023/03/16 07:06:13;;;;;;;1.00;0.90;;;;;;;4.65;95.14;101449.25;5046384;28;20024;-63
2023/03/16 07:08:38;;;;;;;1.00;1.00;;;;;;;4.69;95.77;101436.16;5049459;28;20025;-63
2023/03/16 07:11:03;;;;;;;0.95;0.95;;;;;;;4.78;94.67;101434.25;5043080;28;20033;-64
2023/03/16 07:13:29;;;;;;;1.00;1.00;;;;;;;4.87;94.26;101438.63;5044559;28;20353;-63
2023/03/16 07:15:54;;;;;;;1.08;1.05;;;;;;;4.90;94.86;101436.34;5042510;28;20017;-63
2023/03/16 07:18:20;;;;;;;1.00;1.00;;;;;;;4.94;93.76;101432.25;5042485;28;20022;-64
2023/03/16 07:20:46;;;;;;;0.90;0.90;;;;;;;4.99;94.74;101425.44;5041608;28;20075;-64
2023/03/16 07:23:11;;;;;;;1.00;1.00;;;;;;;4.97;93.88;101425.63;5043574;28;20021;-63
2023/03/16 07:25:37;;;;;;;0.90;0.90;;;;;;;5.01;94.27;101424.22;5044489;28;20032;-64
2023/03/16 07:28:02;;;;;;;1.00;1.00;;;;;;;5.08;93.34;101430.66;5046906;28;20100;-64
2023/03/16 07:30:28;;;;;;;1.00;1.00;;;;;;;5.16;93.44;101421.56;5045238;28;20037;-64
2023/03/16 07:32:54;;;;;;;0.90;0.90;;;;;;;5.21;92.55;101424.59;5043096;28;20079;-64
2023/03/16 07:35:20;;;;;;;1.40;1.10;;;;;;;5.25;93.05;101419.63;5045123;28;20391;-64
2023/03/16 07:37:45;;;;;;;1.08;1.00;;;;;;;5.29;92.90;101418.25;5049987;28;20029;-64
2023/03/16 07:40:12;;;;;;;1.02;0.95;;;;;;;5.23;94.44;101418.97;5059576;28;20068;-64
2023/03/16 07:42:38;;;;;;;1.20;1.10;;;;;;;5.28;94.93;101413.84;5047098;28;20048;-64
2023/03/16 07:45:04;;;;;;;0.90;0.90;;;;;;;5.35;94.32;101417.50;5049597;28;20025;-64
2023/03/16 07:47:30;;;;;;;1.33;1.13;;;;;;;5.33;94.93;101416.84;5049186;28;20041;-63
2023/03/16 07:49:56;;;;;;;0.90;0.90;;;;;;;5.33;93.45;101422.31;5049544;28;20017;-64
2023/03/16 07:52:21;;;;;;;0.95;0.95;;;;;;;5.40;92.91;101421.38;5049008;28;20037;-63
2023/03/16 07:54:47;;;;;;;0.98;0.98;;;;;;;5.40;91.76;101421.38;5048207;28;20051;-63
2023/03/16 07:57:13;;;;;;;1.02;1.00;;;;;;;5.43;92.90;101422.91;5049805;28;20031;-62
2023/03/16 07:59:38;;;;;;;1.00;1.00;;;;;;;5.44;92.62;101413.69;5049511;28;20031;-61
2023/03/16 08:02:04;;;;;;;1.15;1.10;;;;;;;5.47;93.46;101410.59;5048090;28;20044;-62
2023/03/16 08:04:30;;;;;;;1.00;1.00;;;;;;;5.59;91.31;101405.56;5050073;28;20029;-62
2023/03/16 08:06:59;;;;;;;1.00;1.00;;;;;;;5.63;90.21;101407.75;5046408;28;20424;-62
2023/03/16 08:09:26;;;;;;;1.00;1.00;;;;;;;5.68;90.72;101412.63;5044860;28;20459;-62
2023/03/16 08:11:52;;;;;;;1.00;1.00;;;;;;;5.73;90.19;101410.22;5049293;28;20044;-62
2023/03/16 08:14:17;;;;;;;1.00;1.00;;;;;;;5.78;88.96;101412.34;5048909;28;20025;-62
2023/03/16 08:16:43;;;;;;;0.93;0.93;;;;;;;5.89;89.08;101406.47;5048580;28;20456;-63
2023/03/16 08:19:10;;;;;;;0.82;0.82;;;;;;;5.91;88.66;101409.84;5048355;28;20036;-62
2023/03/16 08:21:35;;;;;;;0.95;0.95;;;;;;;6.02;87.63;101403.09;5049107;28;20025;-63
2023/03/16 08:24:01;;;;;;;0.93;0.93;;;;;;;6.09;87.13;101409.53;5048679;28;20063;-62
2023/03/16 08:26:26;;;;;;;0.90;0.90;;;;;;;6.20;84.89;101407.16;5049259;28;20028;-62
2023/03/16 08:28:52;;;;;;;1.00;0.90;;;;;;;6.21;84.99;101427.94;5045981;28;20033;-63
2023/03/16 08:31:19;;;;;;;0.98;0.93;;;;;;;6.19;84.53;101416.38;5048399;28;20027;-63
2023/03/16 08:33:47;;;;;;;1.00;1.00;;;;;;;6.23;83.46;101416.84;5048160;28;20037;-63
2023/03/16 08:36:14;;;;;;;1.00;1.00;;;;;;;6.23;84.02;101433.19;5047135;28;20045;-63
2023/03/16 08:38:41;;;;;;;1.00;1.00;;;;;;;6.39;80.83;101422.13;5033513;28;20095;-64
2023/03/16 08:41:07;;;;;;;0.93;0.90;;;;;;;6.35;82.52;101409.88;5036896;28;20053;-63
2023/03/16 08:43:33;;;;;;;1.00;1.00;;;;;;;6.41;82.85;101414.59;5043748;28;20025;-64
2023/03/16 08:46:00;;;;;;;0.80;0.80;;;;;;;6.44;81.70;101411.50;5045626;28;20052;-64
2023/03/16 08:48:25;;;;;;;1.00;1.00;;;;;;;6.53;81.51;101409.47;5047997;28;20028;-63
2023/03/16 08:50:52;;;;;;;0.80;0.80;;;;;;;6.64;82.77;101411.75;5049574;28;20040;-64
2023/03/16 08:53:18;;;;;;;0.90;0.90;;;;;;;6.76;80.22;101412.09;5040262;28;20032;-63
2023/03/16 08:55:44;;;;;;;0.90;0.90;;;;;;;6.87;80.67;101413.47;5039478;28;20074;-63
2023/03/16 08:58:10;;;;;;;0.90;0.90;;;;;;;6.89;80.90;101401.31;5040325;28;20025;-63
2023/03/16 09:00:37;;;;;;;0.80;0.80;;;;;;;6.90;77.82;101391.25;5058177;28;20046;-64
2023/03/16 09:03:02;;;;;;;0.90;0.90;;;;;;;6.97;77.50;101392.16;5044906;28;20028;-64
2023/03/16 09:05:28;;;;;;;0.80;0.80;;;;;;;6.91;78.80;101393.78;5041221;28;20014;-63
2023/03/16 09:07:53;;;;;;;1.00;0.90;;;;;;;6.92;78.85;101394.63;5044771;28;20024;-64
2023/03/16 09:10:21;;;;;;;0.90;0.90;;;;;;;6.94;78.48;101390.63;5035285;28;20029;-63
2023/03/16 09:12:48;;;;;;;;;;;;;;;7.03;78.67;101383.19;5045690;28;20076;-63
2023/03/16 09:15:14;;;;;;;0.83;0.80;;;;;;;7.11;76.81;101376.75;5045706;28;19924;-63
2023/03/16 09:17:40;;;;;;;0.80;0.80;;;;;;;7.17;77.45;101375.97;5045638;28;20386;-63
2023/03/16 09:20:09;;;;;;;0.88;0.85;;;;;;;7.23;76.93;101384.22;5046640;28;20033;-64
2023/03/16 09:22:35;;;;;;;0.90;0.90;;;;;;;7.36;77.14;101390.88;5043464;28;20032;-64
2023/03/16 09:25:01;;;;;;;1.00;0.90;;;;;;;7.51;73.60;101378.81;5028110;28;20017;-63
2023/03/16 09:27:26;;;;;;;0.90;0.90;;;;;;;7.64;73.46;101371.75;5027569;28;20487;-63
2023/03/16 09:29:54;;;;;;;0.70;0.70;;;;;;;7.85;74.78;101382.63;5047792;28;20108;-63
2023/03/16 09:32:20;;;;;;;0.95;0.90;;;;;;;8.15;71.74;101375.03;5047782;28;20033;-63
2023/03/16 09:34:45;;;;;;;0.90;0.90;;;;;;;8.57;72.87;101370.44;5047987;28;20726;-63
2023/03/16 09:37:11;;;;;;;0.77;0.77;;;;;;;8.96;69.02;101371.59;5048396;28;20446;-63
2023/03/16 09:39:37;;;;;;;0.70;0.70;;;;;;;9.25;67.18;101371.22;5046908;28;20075;-64
2023/03/16 09:42:35;;;;;;;0.70;0.70;;;;;;;9.31;67.01;101369.53;5045870;28;20025;-64
2023/03/16 09:45:27;;;;;;;0.75;0.75;;;;;;;9.20;66.98;101375.66;5037719;28;20041;-63
2023/03/16 09:47:57;;;;;;;0.80;0.80;;;;;;;9.13;65.09;101372.06;5045163;28;20056;-64
2023/03/16 09:50:30;;;;;;;0.80;0.80;;;;;;;9.10;65.93;101374.16;5047106;28;20071;-64
2023/03/16 09:53:00;;;;;;;0.70;0.70;;;;;;;9.29;64.03;101372.50;5035958;28;20025;-64
2023/03/16 09:55:33;;;;;;;0.60;0.60;;;;;;;9.91;62.20;101373.09;5045390;28;20060;-63
2023/03/16 09:58:00;;;;;;;0.70;0.70;;;;;;;10.54;60.04;101372.53;5046824;28;20021;-64
2023/03/16 10:00:30;;;;;;;0.75;0.70;;;;;;;10.61;58.04;101367.88;5047686;28;20072;-63
2023/03/16 10:03:14;;;;;;;0.70;0.70;;;;;;;11.35;58.83;101366.34;5047501;28;20464;-63
2023/03/16 10:05:40;;;;;;;0.60;0.60;;;;;;;11.81;53.92;101352.22;5047899;28;20033;-63
2023/03/16 10:08:23;;;;;;;0.50;0.50;;;;;;;11.55;57.21;101349.69;5045738;28;20083;-64
2023/03/16 10:11:17;;;;;;;0.70;0.68;;;;;;;11.61;56.99;101346.06;5047275;28;20040;-64
2023/03/16 10:14:04;;;;;;;0.60;0.60;;;;;;;12.09;55.12;101346.22;5047071;28;20120;-63
2023/03/16 10:16:46;;;;;;;0.50;0.50;;;;;;;12.91;50.14;101338.38;5047568;28;20062;-64
2023/03/16 10:19:20;;;;;;;0.50;0.50;;;;;;;13.74;49.27;101331.16;5036942;28;20102;-64
2023/03/16 10:21:47;;;;;;;0.55;0.50;;;;;;;14.68;46.62;101331.00;5028540;28;20022;-64
2023/03/16 10:24:51;;;;;;;0.73;0.50;;;;;;;15.00;48.70;101329.44;5045336;28;20016;-63
2023/03/16 10:27:27;;;;;;;0.77;0.50;;;;;;;15.20;46.43;101328.94;5045662;28;20041;-64
2023/03/16 10:29:52;;;;;;;0.52;0.50;;;;;;;15.42;44.28;101337.38;5046442;28;20021;-64
2023/03/16 10:32:18;;;;;;;0.52;0.52;;;;;;;15.74;44.70;101325.72;5045678;28;20044;-63
2023/03/16 10:34:51;;;;;;;0.50;0.50;;;;;;;15.63;42.65;101334.94;5046024;28;20112;-64
2023/03/16 10:37:17;;;;;;;0.40;0.40;;;;;;;15.61;44.44;101328.78;5043174;28;20021;-64
2023/03/16 10:39:42;;;;;;;0.50;0.50;;;;;;;15.77;43.73;101325.22;5046527;28;20086;-63
2023/03/16 10:42:16;;;;;;;0.47;0.40;;;;;;;16.05;43.52;101333.38;5046637;28;20045;-63
2023/03/16 10:44:43;;;;;;;0.50;0.50;;;;;;;16.15;40.48;101313.28;5046922;28;20025;-64
2023/03/16 10:47:22;;;;;;;0.50;0.50;;;;;;;16.73;42.30;101319.31;5047445;28;20167;-63
2023/03/16 10:49:50;;;;;;;0.43;0.43;;;;;;;16.94;40.03;101315.66;5047238;28;20090;-63
2023/03/16 10:52:19;;;;;;;0.50;0.50;;;;;;;17.22;39.72;101311.75;5044639;28;20021;-64
2023/03/16 10:54:57;;;;;;;0.40;0.40;;;;;;;17.16;41.19;101309.19;5039762;28;20033;-64
2023/03/16 10:57:24;;;;;;;;;;;;;;;17.32;39.50;101300.72;5045929;28;20127;-63
2023/03/16 10:59:53;;;;;;;0.43;0.43;;;;;;;16.47;39.64;101302.31;5045018;28;20325;-63
2023/03/16 11:02:29;;;;;;;0.40;0.40;;;;;;;15.67;40.67;101312.06;5044364;28;20354;-63
2023/03/16 11:04:56;;;;;;;0.50;0.50;;;;;;;14.64;41.62;101303.00;5046107;28;20032;-64
2023/03/16 11:07:23;;;;;;;0.57;0.50;;;;;;;14.44;42.39;101308.94;5045564;28;20845;-63
2023/03/16 11:09:51;;;;;;;0.40;0.40;;;;;;;14.11;42.54;101294.97;5053243;28;20092;-63
2023/03/16 11:12:30;;;;;;;0.60;0.60;;;;;;;13.94;44.90;101284.69;5045740;28;20028;-64
2023/03/16 11:15:12;;;;;;;0.40;0.40;;;;;;;14.00;44.92;101294.75;5049669;28;20031;-64
2023/03/16 11:17:52;;;;;;;0.40;0.40;;;;;;;13.83;45.04;101285.53;5057509;28;20021;-63
2023/03/16 11:20:25;;;;;;;0.35;0.35;;;;;;;13.67;44.56;101278.81;5047346;28;20442;-63
2023/03/16 11:22:51;;;;;;;0.45;0.45;;;;;;;13.52;43.92;101269.34;5048213;28;20036;-64
2023/03/16 11:25:35;;;;;;;0.50;0.50;;;;;;;13.60;47.07;101271.75;5055401;28;20020;-63
2023/03/16 11:28:11;;;;;;;0.50;0.50;;;;;;;13.43;46.50;101264.19;5050654;28;20029;-63
2023/03/16 11:30:52;;;;;;;0.40;0.40;;;;;;;13.37;45.89;101259.63;5049696;28;20553;-63
2023/03/16 11:33:17;;;;;;;0.50;0.50;;;;;;;13.15;44.85;101272.28;5050769;28;20043;-63
2023/03/16 11:35:52;;;;;;;0.68;0.60;;;;;;;12.89;46.34;101265.28;5051150;28;20518;-63
2023/03/16 11:38:32;;;;;;;0.50;0.50;;;;;;;13.08;47.49;101252.25;5053054;28;20376;-63
2023/03/16 11:41:04;;;;;;;0.50;0.50;;;;;;;13.38;46.36;101250.28;5066129;28;20029;-63